createdAt,value
2018-08-10T00:00:52.114Z,95008.36
2018-08-10T00:03:20.508Z,95012.84
2018-08-10T00:05:48.997Z,95028.27
2018-08-10T00:08:17.343Z,95035.63
2018-08-10T00:10:45.703Z,95029.63
2018-08-10T00:13:14.080Z,95032.58
2018-08-10T00:15:42.457Z,95034.91
2018-08-10T00:18:10.860Z,95041.59
2018-08-10T00:20:39.267Z,95042.89
2018-08-10T00:23:07.783Z,95031.81
2018-08-10T00:25:36.224Z,95044.02
2018-08-10T00:28:04.602Z,95059.17
2018-08-10T00:30:32.976Z,95051.62
2018-08-10T00:33:01.333Z,95071.48
2018-08-10T00:35:29.688Z,95064.17
2018-08-10T00:37:58.086Z,95069.16
2018-08-10T00:40:26.435Z,95086.64
2018-08-10T00:42:54.819Z,95088.05
2018-08-10T00:45:23.155Z,95095.98
2018-08-10T00:47:51.523Z,95105.02
2018-08-10T00:50:19.908Z,95108.63
2018-08-10T00:52:48.777Z,95115.42
2018-08-10T00:55:18.258Z,95114.84
2018-08-10T00:57:47.047Z,95124.00
2018-08-10T01:00:21.967Z,95122.92
2018-08-10T01:02:50.763Z,95122.13
2018-08-10T01:05:19.182Z,95126.32
2018-08-10T01:07:47.550Z,95130.28
2018-08-10T01:10:17.357Z,95136.91
2018-08-10T01:12:45.739Z,95148.16
2018-08-10T01:15:15.308Z,95142.69
2018-08-10T01:17:44.240Z,95134.66
2018-08-10T01:20:15.692Z,95140.34
2018-08-10T01:22:49.073Z,95141.50
2018-08-10T01:25:18.727Z,95144.73
2018-08-10T01:27:52.279Z,95147.79
2018-08-10T01:30:20.646Z,95158.17
2018-08-10T01:32:49.144Z,95153.95
2018-08-10T01:35:17.558Z,95156.73
2018-08-10T01:37:45.936Z,95154.91
2018-08-10T01:40:14.375Z,95170.41
2018-08-10T01:42:42.737Z,95179.88
2018-08-10T01:45:11.225Z,95181.19
2018-08-10T01:47:39.584Z,95188.34
2018-08-10T01:50:08.668Z,95193.03
2018-08-10T01:52:37.439Z,95188.35
2018-08-10T01:55:06.023Z,95192.36
2018-08-10T01:57:34.491Z,95195.41
2018-08-10T02:00:03.028Z,95191.45
2018-08-10T02:02:31.590Z,95198.30
2018-08-10T02:05:00.034Z,95185.66
2018-08-10T02:07:28.469Z,95211.64
2018-08-10T02:09:56.861Z,95226.62
2018-08-10T02:12:25.311Z,95217.44
2018-08-10T02:14:54.050Z,95214.62
2018-08-10T02:17:22.436Z,95221.94
2018-08-10T02:19:50.840Z,95229.66
2018-08-10T02:22:19.438Z,95227.02
2018-08-10T02:24:47.969Z,95228.86
2018-08-10T02:27:16.406Z,95237.32
2018-08-10T02:29:44.863Z,95227.00
2018-08-10T02:32:13.410Z,95236.64
2018-08-10T02:34:41.731Z,95229.97
2018-08-10T02:37:10.129Z,95236.03
2018-08-10T02:39:38.417Z,95243.03
2018-08-10T02:42:06.960Z,95240.23
2018-08-10T02:44:35.380Z,95240.61
2018-08-10T02:47:03.752Z,95239.98
2018-08-10T02:49:32.075Z,95241.36
2018-08-10T02:52:00.688Z,95246.06
2018-08-10T02:54:29.360Z,95248.11
2018-08-10T02:56:57.966Z,95252.97
2018-08-10T02:59:26.322Z,95258.11
2018-08-10T03:01:55.993Z,95260.67
2018-08-10T03:04:24.326Z,95268.56
2018-08-10T03:06:52.755Z,95273.53
2018-08-10T03:09:21.126Z,95269.88
2018-08-10T03:11:49.526Z,95271.33
2018-08-10T03:14:18.095Z,95268.04
2018-08-10T03:16:46.432Z,95268.22
2018-08-10T03:19:14.736Z,95272.66
2018-08-10T03:21:43.066Z,95269.50
2018-08-10T03:24:11.351Z,95281.80
2018-08-10T03:26:40.820Z,95273.92
2018-08-10T03:29:09.125Z,95274.16
2018-08-10T03:31:37.454Z,95277.71
2018-08-10T03:34:05.813Z,95281.76
2018-08-10T03:36:34.147Z,95276.77
2018-08-10T03:39:02.521Z,95287.31
2018-08-10T03:41:30.863Z,95287.45
2018-08-10T03:43:59.271Z,95285.73
2018-08-10T03:46:27.587Z,95296.35
2018-08-10T03:48:56.046Z,95282.47
2018-08-10T03:51:25.491Z,95285.19
2018-08-10T03:53:53.812Z,95290.36
2018-08-10T03:56:22.213Z,95290.83
2018-08-10T03:58:50.599Z,95293.83
2018-08-10T04:01:19.080Z,95306.86
2018-08-10T04:03:47.451Z,95312.06
2018-08-10T04:06:15.876Z,95318.03
2018-08-10T04:08:44.255Z,95327.97
2018-08-10T04:11:12.595Z,95327.46
2018-08-10T04:13:41.075Z,95333.17
2018-08-10T04:16:09.698Z,95330.06
2018-08-10T04:18:38.100Z,95342.05
2018-08-10T04:21:06.743Z,95342.58
2018-08-10T04:23:35.204Z,95348.28
2018-08-10T04:26:03.727Z,95349.76
2018-08-10T04:28:32.176Z,95365.48
2018-08-10T04:31:00.891Z,95361.33
2018-08-10T04:33:29.688Z,95372.81
2018-08-10T04:35:58.214Z,95367.85
2018-08-10T04:38:29.782Z,95378.41
2018-08-10T04:41:03.506Z,95378.45
2018-08-10T04:43:35.589Z,95384.55
2018-08-10T04:46:05.664Z,95377.99
2018-08-10T04:48:42.110Z,95392.56
2018-08-10T04:51:14.452Z,95403.84
2018-08-10T04:53:47.263Z,95401.51
2018-08-10T04:56:17.197Z,95411.94
2018-08-10T04:58:51.057Z,95413.14
2018-08-10T05:04:04.090Z,95418.48
2018-08-10T05:06:36.994Z,95432.08
2018-08-10T05:09:12.452Z,95435.44
2018-08-10T05:11:43.447Z,95442.27
2018-08-10T05:14:14.255Z,95441.94
2018-08-10T05:16:46.521Z,95442.98
2018-08-10T05:19:17.615Z,95453.72
2018-08-10T05:21:58.754Z,95460.80
2018-08-10T05:24:29.825Z,95462.89
2018-08-10T05:27:00.483Z,95463.73
2018-08-10T05:29:34.286Z,95470.79
2018-08-10T05:32:05.529Z,95478.78
2018-08-10T05:34:35.930Z,95475.19
2018-08-10T05:37:06.658Z,95482.81
2018-08-10T05:39:36.575Z,95482.77
2018-08-10T05:42:07.016Z,95488.75
2018-08-10T05:44:38.534Z,95492.12
2018-08-10T05:47:08.473Z,95498.74
2018-08-10T05:49:38.749Z,95493.97
2018-08-10T05:52:08.871Z,95494.50
2018-08-10T05:54:38.958Z,95493.79
2018-08-10T05:57:10.048Z,95503.37
2018-08-10T05:59:40.157Z,95506.23
2018-08-10T06:02:10.008Z,95504.69
2018-08-10T06:04:44.306Z,95511.70
2018-08-10T06:07:19.291Z,95517.18
2018-08-10T06:09:51.386Z,95516.44
2018-08-10T06:12:27.866Z,95515.61
2018-08-10T06:15:05.960Z,95517.41
2018-08-10T06:17:36.093Z,95518.66
2018-08-10T06:20:05.679Z,95521.74
2018-08-10T06:22:34.126Z,95530.67
2018-08-10T06:25:02.532Z,95532.63
2018-08-10T06:27:30.862Z,95533.80
2018-08-10T06:29:59.253Z,95534.28
2018-08-10T06:32:27.624Z,95538.80
2018-08-10T06:34:56.191Z,95545.66
2018-08-10T06:37:24.608Z,95545.42
2018-08-10T06:39:52.959Z,95546.30
2018-08-10T06:42:21.372Z,95548.92
2018-08-10T06:44:49.717Z,95551.77
2018-08-10T06:47:18.079Z,95557.02
2018-08-10T06:49:46.463Z,95554.13
2018-08-10T06:52:14.792Z,95554.57
2018-08-10T06:54:43.152Z,95558.59
2018-08-10T06:57:11.525Z,95564.30
2018-08-10T06:59:39.884Z,95557.78
2018-08-10T07:02:08.281Z,95563.92
2018-08-10T07:04:36.662Z,95566.16
2018-08-10T07:07:05.263Z,95566.82
2018-08-10T07:09:33.652Z,95573.11
2018-08-10T07:12:01.958Z,95576.39
2018-08-10T07:14:30.339Z,95574.42
2018-08-10T07:16:58.675Z,95584.50
2018-08-10T07:19:27.043Z,95582.04
2018-08-10T07:21:55.409Z,95585.11
2018-08-10T07:24:23.770Z,95578.89
2018-08-10T07:26:52.201Z,95588.94
2018-08-10T07:29:20.592Z,95588.60
2018-08-10T07:31:48.994Z,95586.86
2018-08-10T07:34:17.336Z,95585.23
2018-08-10T07:36:45.762Z,95590.67
2018-08-10T07:39:14.136Z,95592.39
2018-08-10T07:41:42.974Z,95591.48
2018-08-10T07:44:11.381Z,95593.75
2018-08-10T07:46:39.916Z,95595.55
2018-08-10T07:49:08.306Z,95593.56
2018-08-10T07:51:36.728Z,95599.02
2018-08-10T07:54:05.098Z,95595.92
2018-08-10T07:56:33.565Z,95593.66
2018-08-10T07:59:01.954Z,95601.63
2018-08-10T08:01:30.371Z,95596.66
2018-08-10T08:03:58.789Z,95600.38
2018-08-10T08:06:27.235Z,95597.80
2018-08-10T08:08:55.604Z,95599.36
2018-08-10T08:11:23.979Z,95605.56
2018-08-10T08:13:52.396Z,95597.98
2018-08-10T08:16:20.886Z,95613.31
2018-08-10T08:18:49.308Z,95606.61
2018-08-10T08:21:17.711Z,95602.22
2018-08-10T08:23:46.141Z,95602.84
2018-08-10T08:26:14.510Z,95603.39
2018-08-10T08:28:42.916Z,95608.47
2018-08-10T08:31:11.379Z,95610.61
2018-08-10T08:33:50.930Z,95606.45
2018-08-10T08:36:19.347Z,95610.75
2018-08-10T08:41:05.244Z,95612.36
2018-08-10T08:45:47.036Z,95619.22
2018-08-10T08:48:15.194Z,95617.45
2018-08-10T08:50:44.904Z,95620.31
2018-08-10T08:53:13.256Z,95611.91
2018-08-10T08:55:51.818Z,95606.64
2018-08-10T08:58:20.319Z,95607.84
2018-08-10T09:00:48.687Z,95613.06
2018-08-10T09:03:28.884Z,95610.19
2018-08-10T09:05:57.674Z,95613.16
2018-08-10T09:08:26.109Z,95614.91
2018-08-10T09:10:55.625Z,95600.91
2018-08-10T09:13:24.412Z,95615.18
2018-08-10T09:15:52.870Z,95617.36
2018-08-10T09:18:21.304Z,95613.77
2018-08-10T09:20:49.720Z,95624.24
2018-08-10T09:23:18.002Z,95626.17
2018-08-10T09:25:46.362Z,95629.70
2018-08-10T09:28:14.670Z,95633.55
2018-08-10T09:30:43.055Z,95629.62
2018-08-10T09:33:11.498Z,95632.21
2018-08-10T09:35:39.946Z,95641.44
2018-08-10T09:38:08.388Z,95634.99
2018-08-10T09:40:36.767Z,95632.23
2018-08-10T09:43:05.429Z,95634.51
2018-08-10T09:45:33.840Z,95638.22
2018-08-10T09:48:02.283Z,95630.41
2018-08-10T09:51:01.629Z,95634.00
2018-08-10T09:53:29.998Z,95628.44
2018-08-10T09:55:58.325Z,95634.04
2018-08-10T09:58:26.671Z,95632.91
2018-08-10T10:00:55.046Z,95634.80
2018-08-10T10:03:24.696Z,95625.98
2018-08-10T10:05:54.280Z,95633.08
2018-08-10T10:08:23.228Z,95632.44
2018-08-10T10:10:51.500Z,95633.03
2018-08-10T10:13:19.759Z,95635.15
2018-08-10T10:15:48.027Z,95634.69
2018-08-10T10:18:16.976Z,95631.45
2018-08-10T10:20:45.988Z,95636.70
2018-08-10T10:23:14.284Z,95625.52
2018-08-10T10:25:42.547Z,95634.78
2018-08-10T10:28:10.953Z,95632.57
2018-08-10T10:30:39.304Z,95632.83
2018-08-10T10:33:07.538Z,95633.01
2018-08-10T10:35:35.793Z,95623.13
2018-08-10T10:38:04.036Z,95619.44
2018-08-10T10:40:32.346Z,95633.47
2018-08-10T10:43:00.659Z,95622.52
2018-08-10T10:45:29.011Z,95626.11
2018-08-10T10:47:57.319Z,95619.64
2018-08-10T10:50:25.771Z,95610.55
2018-08-10T10:52:54.035Z,95628.59
2018-08-10T10:55:22.304Z,95625.95
2018-08-10T10:57:50.559Z,95623.72
2018-08-10T11:00:20.158Z,95614.66
2018-08-10T11:05:41.886Z,95624.23
2018-08-10T11:08:11.297Z,95629.78
2018-08-10T11:10:39.579Z,95618.30
2018-08-10T11:13:08.071Z,95624.42
2018-08-10T11:15:36.478Z,95631.67
2018-08-10T11:18:04.931Z,95623.06
2018-08-10T11:20:34.396Z,95624.11
2018-08-10T11:23:02.670Z,95610.99
2018-08-10T11:25:31.019Z,95612.13
2018-08-10T11:27:59.278Z,95621.61
2018-08-10T11:30:27.704Z,95617.56
2018-08-10T11:32:56.048Z,95625.38
2018-08-10T11:35:24.456Z,95616.64
2018-08-10T11:37:52.722Z,95610.79
2018-08-10T11:40:21.031Z,95607.80
2018-08-10T11:42:49.424Z,95608.02
2018-08-10T11:45:18.449Z,95616.94
2018-08-10T11:47:46.855Z,95621.52
2018-08-10T11:50:15.176Z,95616.89
2018-08-10T11:52:43.465Z,95616.52
2018-08-10T11:55:16.232Z,95619.22
2018-08-10T11:57:45.093Z,95628.06
2018-08-10T12:00:14.890Z,95616.00
2018-08-10T12:02:43.686Z,95620.48
2018-08-10T12:05:13.056Z,95620.75
2018-08-10T12:07:41.830Z,95610.54
2018-08-10T12:10:10.318Z,95615.72
2018-08-10T12:12:38.890Z,95615.67
2018-08-10T12:15:09.362Z,95623.34
2018-08-10T12:17:37.971Z,95622.17
2018-08-10T12:20:06.540Z,95620.51
2018-08-10T12:22:34.898Z,95622.67
2018-08-10T12:25:03.266Z,95616.73
2018-08-10T12:27:38.347Z,95615.95
2018-08-10T12:30:08.450Z,95608.02
2018-08-10T12:32:36.852Z,95605.49
2018-08-10T12:35:05.235Z,95611.47
2018-08-10T12:37:33.640Z,95620.58
2018-08-10T12:40:02.180Z,95621.53
2018-08-10T12:42:30.591Z,95618.09
2018-08-10T12:44:58.980Z,95624.52
2018-08-10T12:47:27.408Z,95621.84
2018-08-10T12:49:55.997Z,95619.73
2018-08-10T12:52:31.077Z,95620.30
2018-08-10T12:54:59.539Z,95622.66
2018-08-10T12:57:28.103Z,95620.84
2018-08-10T12:59:56.782Z,95627.38
2018-08-10T13:02:25.271Z,95620.28
2018-08-10T13:04:53.748Z,95617.98
2018-08-10T13:07:22.449Z,95615.73
2018-08-10T13:09:50.897Z,95625.86
2018-08-10T13:12:19.381Z,95623.45
2018-08-10T13:14:47.811Z,95622.20
2018-08-10T13:17:16.599Z,95617.70
2018-08-10T13:19:45.099Z,95603.42
2018-08-10T13:22:13.602Z,95595.87
2018-08-10T13:24:41.975Z,95607.02
2018-08-10T13:27:10.321Z,95601.91
2018-08-10T13:29:38.639Z,95608.47
2018-08-10T13:32:07.137Z,95612.56
2018-08-10T13:34:35.553Z,95610.87
2018-08-10T13:37:03.960Z,95597.41
2018-08-10T13:39:32.336Z,95602.34
2018-08-10T13:42:00.867Z,95593.92
2018-08-10T13:44:29.215Z,95596.37
2018-08-10T13:47:01.575Z,95591.01
2018-08-10T13:49:31.112Z,95585.30
2018-08-10T13:51:59.546Z,95593.83
2018-08-10T13:54:28.058Z,95598.16
2018-08-10T13:56:56.488Z,95586.34
2018-08-10T13:59:24.973Z,95577.73
2018-08-10T14:01:53.413Z,95576.34
2018-08-10T14:04:21.874Z,95582.33
2018-08-10T14:06:50.895Z,95576.35
2018-08-10T14:09:19.362Z,95575.47
2018-08-10T14:11:47.921Z,95588.55
2018-08-10T14:14:17.495Z,95586.69
2018-08-10T14:16:45.952Z,95586.84
2018-08-10T14:19:14.449Z,95589.72
2018-08-10T14:21:43.035Z,95583.61
2018-08-10T14:24:11.535Z,95584.75
2018-08-10T14:26:40.024Z,95587.16
2018-08-10T14:29:08.653Z,95589.58
2018-08-10T14:31:37.172Z,95581.88
2018-08-10T14:34:05.596Z,95573.09
2018-08-10T14:36:33.984Z,95573.50
2018-08-10T14:39:02.370Z,95576.44
2018-08-10T14:41:30.975Z,95582.22
2018-08-10T14:43:59.445Z,95588.94
2018-08-10T14:46:27.898Z,95582.28
2018-08-10T14:48:56.313Z,95582.28
2018-08-10T14:51:24.724Z,95582.88
2018-08-10T14:53:53.036Z,95585.81
2018-08-10T14:56:21.335Z,95588.37
2018-08-10T14:58:49.772Z,95584.77
2018-08-10T15:01:18.147Z,95581.18
2018-08-10T15:03:46.540Z,95581.67
2018-08-10T15:06:14.871Z,95574.72
2018-08-10T15:08:46.134Z,95582.06
2018-08-10T15:11:14.750Z,95582.69
2018-08-10T15:13:43.117Z,95592.12
2018-08-10T15:16:11.533Z,95578.74
2018-08-10T15:18:39.941Z,95580.70
2018-08-10T15:21:08.633Z,95578.78
2018-08-10T15:23:37.108Z,95578.50
2018-08-10T15:26:06.576Z,95575.22
2018-08-10T15:28:35.024Z,95570.36
2018-08-10T15:31:03.409Z,95570.61
2018-08-10T15:33:32.090Z,95575.02
2018-08-10T15:36:00.596Z,95567.33
2018-08-10T15:38:29.133Z,95562.77
2018-08-10T15:40:57.672Z,95562.34
2018-08-10T15:43:26.089Z,95567.09
2018-08-10T15:45:54.523Z,95557.49
2018-08-10T15:48:22.939Z,95559.95
2018-08-10T15:50:51.276Z,95551.64
2018-08-10T15:53:19.654Z,95559.77
2018-08-10T15:55:48.005Z,95557.54
2018-08-10T15:58:16.483Z,95543.59
2018-08-10T16:00:44.810Z,95549.40
2018-08-10T16:03:13.195Z,95547.00
2018-08-10T16:05:41.458Z,95537.64
2018-08-10T16:08:09.902Z,95541.94
2018-08-10T16:10:38.233Z,95541.55
2018-08-10T16:13:06.953Z,95548.85
2018-08-10T16:15:35.378Z,95539.88
2018-08-10T16:18:03.694Z,95542.96
2018-08-10T16:20:31.956Z,95544.85
2018-08-10T16:23:00.283Z,95543.38
2018-08-10T16:25:28.711Z,95543.66
2018-08-10T16:27:56.982Z,95539.02
2018-08-10T16:30:25.397Z,95544.21
2018-08-10T16:32:53.680Z,95546.42
2018-08-10T16:35:21.966Z,95544.95
2018-08-10T16:37:50.435Z,95544.56
2018-08-10T16:40:19.659Z,95549.00
2018-08-10T16:42:48.220Z,95542.47
2018-08-10T16:45:16.492Z,95545.41
2018-08-10T16:47:45.927Z,95545.41
2018-08-10T16:50:16.008Z,95545.50
2018-08-10T16:52:44.848Z,95537.27
2018-08-10T16:55:15.631Z,95545.34
2018-08-10T16:57:44.812Z,95544.83
2018-08-10T17:00:18.778Z,95546.98
2018-08-10T17:02:47.514Z,95542.86
2018-08-10T17:05:16.026Z,95542.86
2018-08-10T17:07:44.608Z,95545.43
2018-08-10T17:10:13.404Z,95534.72
2018-08-10T17:12:47.242Z,95537.45
2018-08-10T17:15:17.405Z,95537.48
2018-08-10T17:17:46.619Z,95536.41
2018-08-10T17:20:15.527Z,95530.31
2018-08-10T17:22:49.510Z,95534.43
2018-08-10T17:25:19.057Z,95534.88
2018-08-10T17:27:47.438Z,95530.53
2018-08-10T17:30:17.255Z,95528.73
2018-08-10T17:32:45.617Z,95534.33
2018-08-10T17:35:14.969Z,95523.87
2018-08-10T17:37:44.125Z,95521.97
2018-08-10T17:40:12.427Z,95528.31
2018-08-10T17:42:40.719Z,95522.61
2018-08-10T17:45:11.101Z,95524.32
2018-08-10T17:47:39.402Z,95523.55
2018-08-10T17:50:12.552Z,95524.70
2018-08-10T17:52:43.768Z,95522.94
2018-08-10T17:55:12.491Z,95523.09
2018-08-10T17:57:40.815Z,95520.94
2018-08-10T18:00:11.366Z,95530.97
2018-08-10T18:02:39.632Z,95531.35
2018-08-10T18:05:09.950Z,95523.55
2018-08-10T18:07:38.242Z,95537.42
2018-08-10T18:10:06.783Z,95531.69
2018-08-10T18:12:35.087Z,95533.48
2018-08-10T18:15:03.478Z,95535.30
2018-08-10T18:17:31.759Z,95536.27
2018-08-10T18:20:00.050Z,95543.47
2018-08-10T18:22:28.303Z,95536.97
2018-08-10T18:24:56.589Z,95546.80
2018-08-10T18:27:25.011Z,95540.95
2018-08-10T18:29:53.264Z,95539.88
2018-08-10T18:32:21.715Z,95543.89
2018-08-10T18:34:49.984Z,95545.33
2018-08-10T18:37:18.259Z,95546.03
2018-08-10T18:39:46.691Z,95543.09
2018-08-10T18:42:14.979Z,95547.12
2018-08-10T18:44:43.274Z,95550.19
2018-08-10T18:47:11.566Z,95546.39
2018-08-10T18:49:39.930Z,95541.52
2018-08-10T18:52:08.185Z,95541.85
2018-08-10T18:54:36.649Z,95547.24
2018-08-10T18:57:04.980Z,95547.73
2018-08-10T18:59:33.198Z,95547.24
2018-08-10T19:02:01.480Z,95543.14
2018-08-10T19:04:29.825Z,95542.66
2018-08-10T19:06:58.165Z,95547.44
2018-08-10T19:09:26.475Z,95544.83
2018-08-10T19:11:54.756Z,95540.48
2018-08-10T19:14:23.114Z,95547.69
2018-08-10T19:16:51.407Z,95546.58
2018-08-10T19:19:19.751Z,95548.77
2018-08-10T19:21:48.096Z,95542.78
2018-08-10T19:24:16.435Z,95544.87
2018-08-10T19:26:44.716Z,95544.45
2018-08-10T19:29:13.012Z,95552.52
2018-08-10T19:31:41.350Z,95549.30
2018-08-10T19:34:09.591Z,95550.64
2018-08-10T19:36:37.940Z,95552.05
2018-08-10T19:39:08.229Z,95549.75
2018-08-10T19:41:36.685Z,95549.96
2018-08-10T19:44:05.030Z,95549.48
2018-08-10T19:46:33.412Z,95552.90
2018-08-10T19:49:01.903Z,95554.41
2018-08-10T19:51:30.245Z,95548.78
2018-08-10T19:53:58.553Z,95561.98
2018-08-10T19:56:26.856Z,95552.61
2018-08-10T19:58:55.203Z,95553.69
2018-08-10T20:01:23.523Z,95555.59
2018-08-10T20:03:51.786Z,95554.62
2018-08-10T20:06:20.124Z,95556.33
2018-08-10T20:08:48.411Z,95552.78
2018-08-10T20:11:16.671Z,95551.62
2018-08-10T20:13:44.960Z,95555.80
2018-08-10T20:16:13.296Z,95548.08
2018-08-10T20:18:42.850Z,95558.57
2018-08-10T20:21:11.180Z,95551.69
2018-08-10T20:23:40.899Z,95551.96
2018-08-10T20:26:12.112Z,95546.55
2018-08-10T20:28:41.915Z,95540.55
2018-08-10T20:31:12.220Z,95541.83
2018-08-10T20:33:42.480Z,95541.09
2018-08-10T20:36:13.659Z,95535.35
2018-08-10T20:38:44.595Z,95535.36
2018-08-10T20:41:13.132Z,95533.81
2018-08-10T20:43:41.420Z,95530.43
2018-08-10T20:46:09.818Z,95529.36
2018-08-10T20:48:38.107Z,95536.06
2018-08-10T20:51:06.363Z,95533.84
2018-08-10T20:53:35.714Z,95533.47
2018-08-10T20:56:04.175Z,95539.61
2018-08-10T20:58:32.379Z,95535.20
2018-08-10T21:01:00.744Z,95526.39
2018-08-10T21:03:29.023Z,95538.97
2018-08-10T21:05:57.384Z,95536.70
2018-08-10T21:08:25.833Z,95534.95
2018-08-10T21:10:54.219Z,95528.64
2018-08-10T21:13:22.520Z,95529.89
2018-08-10T21:15:50.831Z,95525.17
2018-08-10T21:18:19.142Z,95528.84
2018-08-10T21:20:47.496Z,95526.41
2018-08-10T21:23:15.950Z,95525.70
2018-08-10T21:25:44.251Z,95526.37
2018-08-10T21:28:12.619Z,95522.77
2018-08-10T21:30:40.870Z,95517.82
2018-08-10T21:33:09.172Z,95512.97
2018-08-10T21:35:37.488Z,95510.86
2018-08-10T21:38:05.776Z,95520.72
2018-08-10T21:40:34.077Z,95520.97
2018-08-10T21:43:02.318Z,95517.64
2018-08-10T21:45:30.583Z,95517.39
2018-08-10T21:47:58.938Z,95514.22
2018-08-10T21:50:27.364Z,95513.30
2018-08-10T21:52:56.688Z,95507.55
2018-08-10T21:55:25.593Z,95510.55
2018-08-10T21:57:54.000Z,95511.72
2018-08-10T22:00:40.356Z,95508.24
2018-08-10T22:03:10.083Z,95514.57
2018-08-10T22:05:38.479Z,95514.43
2018-08-10T22:08:06.735Z,95509.80
2018-08-10T22:10:34.991Z,95510.38
2018-08-10T22:13:03.327Z,95504.10
2018-08-10T22:15:37.056Z,95502.03
2018-08-10T22:18:11.221Z,95501.26
2018-08-10T22:20:39.686Z,95498.13
2018-08-10T22:23:08.159Z,95501.15
2018-08-10T22:25:36.547Z,95498.63
2018-08-10T22:28:04.988Z,95506.44
2018-08-10T22:30:33.439Z,95499.66
2018-08-10T22:33:01.915Z,95498.57
2018-08-10T22:35:30.302Z,95499.09
2018-08-10T22:37:58.679Z,95493.88
2018-08-10T22:40:27.152Z,95505.16
2018-08-10T22:42:55.523Z,95496.32
2018-08-10T22:45:23.996Z,95498.94
2018-08-10T22:47:52.412Z,95499.70
2018-08-10T22:50:20.799Z,95498.97
2018-08-10T22:52:49.236Z,95496.33
2018-08-10T22:55:17.615Z,95494.77
2018-08-10T22:57:46.028Z,95496.84
2018-08-10T23:00:14.601Z,95491.86
2018-08-10T23:02:42.982Z,95486.09
2018-08-10T23:05:11.470Z,95490.04
2018-08-10T23:07:39.723Z,95486.06
2018-08-10T23:10:09.687Z,95480.37
2018-08-10T23:12:38.131Z,95487.44
2018-08-10T23:15:07.080Z,95481.14
2018-08-10T23:17:35.511Z,95473.31
2018-08-10T23:20:04.887Z,95475.26
2018-08-10T23:22:33.238Z,95478.62
2018-08-10T23:25:01.614Z,95476.77
2018-08-10T23:27:29.938Z,95471.53
2018-08-10T23:29:58.264Z,95474.41
2018-08-10T23:32:26.637Z,95465.00
2018-08-10T23:34:55.012Z,95462.86
2018-08-10T23:37:23.411Z,95457.64
2018-08-10T23:39:51.731Z,95460.02
2018-08-10T23:42:20.998Z,95454.67
2018-08-10T23:44:49.337Z,95453.16
2018-08-10T23:47:17.894Z,95451.33
2018-08-10T23:49:46.239Z,95457.17
2018-08-10T23:52:14.642Z,95459.05
2018-08-10T23:54:42.999Z,95454.27
2018-08-10T23:57:11.343Z,95453.36
2018-08-10T23:59:39.700Z,95457.94
